Terminal Aerodrome Forecast
Issued by NWS

Home | Current Version | Previous Version | Text Only | Print | Product List | Glossary On
Versions: 1 2 3 4 5 6 7 8 9 10 11 12 13 14 15 16 17
000
FTUS43 KGRR 282300 RRA
TAFLAN
TAF
KLAN 282343Z 2900/2924 16010KT P6SM OVC150
     FM290300 16013KT P6SM OVC120 WS020/18050KT
     FM290600 16014KT 4SM -FZRAPL OVC025 WS020/20050KT
     FM291000 17014KT 3SM -FZRAPL OVC009
     FM291400 21010KT 1SM -SNPL OVC009
     FM291900 30015G25KT 5SM -SHSN OVC015=

USA.gov is the U.S. government's official web portal to all federal, state and local government web resources and services.